sensor_id;sensor_type;location;lat;lon;timestamp;P1;durP1;ratioP1;P2;durP2;ratioP2
82159;SDS011;71734;50.876;7.372;2024-02-26T00:01:43;2.03;;;0.70;;
82159;SDS011;71734;50.876;7.372;2024-02-26T00:04:11;1.92;;;0.70;;
82159;SDS011;71734;50.876;7.372;2024-02-26T00:06:39;2.80;;;0.95;;
82159;SDS011;71734;50.876;7.372;2024-02-26T00:09:06;1.48;;;0.65;;
82159;SDS011;71734;50.876;7.372;2024-02-26T00:11:33;2.30;;;0.80;;
82159;SDS011;71734;50.876;7.372;2024-02-26T00:13:59;2.03;;;0.70;;
82159;SDS011;71734;50.876;7.372;2024-02-26T00:19:20;2.15;;;0.70;;
82159;SDS011;71734;50.876;7.372;2024-02-26T00:21:49;2.17;;;0.63;;
82159;SDS011;71734;50.876;7.372;2024-02-26T00:24:15;2.80;;;0.77;;
82159;SDS011;71734;50.876;7.372;2024-02-26T00:26:42;2.97;;;0.95;;
82159;SDS011;71734;50.876;7.372;2024-02-26T00:29:08;3.03;;;0.70;;
82159;SDS011;71734;50.876;7.372;2024-02-26T00:31:36;1.38;;;0.70;;
82159;SDS011;71734;50.876;7.372;2024-02-26T00:34:03;2.97;;;0.93;;
82159;SDS011;71734;50.876;7.372;2024-02-26T00:36:29;3.00;;;0.88;;
82159;SDS011;71734;50.876;7.372;2024-02-26T00:38:57;2.85;;;0.80;;
82159;SDS011;71734;50.876;7.372;2024-02-26T00:41:24;2.47;;;0.70;;
82159;SDS011;71734;50.876;7.372;2024-02-26T00:43:50;2.20;;;0.80;;
82159;SDS011;71734;50.876;7.372;2024-02-26T00:46:17;2.42;;;0.80;;
82159;SDS011;71734;50.876;7.372;2024-02-26T00:48:43;2.83;;;0.90;;
82159;SDS011;71734;50.876;7.372;2024-02-26T00:51:10;2.75;;;0.80;;
82159;SDS011;71734;50.876;7.372;2024-02-26T00:53:36;3.10;;;0.80;;
82159;SDS011;71734;50.876;7.372;2024-02-26T00:56:04;3.83;;;0.93;;
82159;SDS011;71734;50.876;7.372;2024-02-26T00:58:31;2.90;;;0.80;;
82159;SDS011;71734;50.876;7.372;2024-02-26T01:00:58;3.00;;;0.90;;
82159;SDS011;71734;50.876;7.372;2024-02-26T01:03:25;2.17;;;0.80;;
82159;SDS011;71734;50.876;7.372;2024-02-26T01:05:51;4.10;;;1.00;;
82159;SDS011;71734;50.876;7.372;2024-02-26T01:08:18;3.05;;;0.80;;
82159;SDS011;71734;50.876;7.372;2024-02-26T01:10:44;2.25;;;0.70;;
82159;SDS011;71734;50.876;7.372;2024-02-26T01:13:12;3.17;;;0.85;;
82159;SDS011;71734;50.876;7.372;2024-02-26T01:15:39;3.38;;;0.95;;
82159;SDS011;71734;50.876;7.372;2024-02-26T01:18:06;2.97;;;0.90;;
82159;SDS011;71734;50.876;7.372;2024-02-26T01:20:32;2.08;;;0.80;;
82159;SDS011;71734;50.876;7.372;2024-02-26T01:22:59;2.45;;;0.88;;
82159;SDS011;71734;50.876;7.372;2024-02-26T01:25:25;3.13;;;1.02;;
82159;SDS011;71734;50.876;7.372;2024-02-26T01:27:52;4.20;;;1.08;;
82159;SDS011;71734;50.876;7.372;2024-02-26T01:30:20;3.60;;;1.00;;
82159;SDS011;71734;50.876;7.372;2024-02-26T01:32:47;3.35;;;1.00;;
82159;SDS011;71734;50.876;7.372;2024-02-26T01:35:13;2.83;;;1.00;;
82159;SDS011;71734;50.876;7.372;2024-02-26T01:37:40;3.13;;;1.08;;
82159;SDS011;71734;50.876;7.372;2024-02-26T01:40:07;4.18;;;1.20;;
82159;SDS011;71734;50.876;7.372;2024-02-26T01:42:34;3.65;;;1.10;;
82159;SDS011;71734;50.876;7.372;2024-02-26T01:45:04;4.35;;;1.25;;
82159;SDS011;71734;50.876;7.372;2024-02-26T01:47:33;4.80;;;1.20;;
82159;SDS011;71734;50.876;7.372;2024-02-26T01:50:00;5.32;;;1.20;;
82159;SDS011;71734;50.876;7.372;2024-02-26T01:52:27;3.65;;;1.30;;
82159;SDS011;71734;50.876;7.372;2024-02-26T01:54:53;4.40;;;1.50;;
82159;SDS011;71734;50.876;7.372;2024-02-26T01:57:20;6.07;;;1.42;;
82159;SDS011;71734;50.876;7.372;2024-02-26T01:59:46;4.53;;;1.33;;
82159;SDS011;71734;50.876;7.372;2024-02-26T02:02:13;6.63;;;1.45;;
82159;SDS011;71734;50.876;7.372;2024-02-26T02:04:43;4.30;;;1.50;;
82159;SDS011;71734;50.876;7.372;2024-02-26T02:07:09;3.25;;;1.00;;
82159;SDS011;71734;50.876;7.372;2024-02-26T02:09:36;3.90;;;1.02;;
82159;SDS011;71734;50.876;7.372;2024-02-26T02:12:03;3.42;;;0.98;;
82159;SDS011;71734;50.876;7.372;2024-02-26T02:14:30;3.00;;;0.93;;
82159;SDS011;71734;50.876;7.372;2024-02-26T02:16:56;3.63;;;1.10;;
82159;SDS011;71734;50.876;7.372;2024-02-26T02:19:24;2.58;;;1.10;;
82159;SDS011;71734;50.876;7.372;2024-02-26T02:21:52;3.55;;;1.10;;
82159;SDS011;71734;50.876;7.372;2024-02-26T02:24:18;3.83;;;1.10;;
82159;SDS011;71734;50.876;7.372;2024-02-26T02:26:45;4.50;;;1.30;;
82159;SDS011;71734;50.876;7.372;2024-02-26T02:29:11;3.70;;;1.05;;
82159;SDS011;71734;50.876;7.372;2024-02-26T02:31:39;4.03;;;0.98;;
82159;SDS011;71734;50.876;7.372;2024-02-26T02:34:05;4.30;;;1.10;;
82159;SDS011;71734;50.876;7.372;2024-02-26T02:36:32;4.32;;;1.33;;
82159;SDS011;71734;50.876;7.372;2024-02-26T02:39:00;3.25;;;1.02;;
82159;SDS011;71734;50.876;7.372;2024-02-26T02:41:27;3.25;;;1.00;;
82159;SDS011;71734;50.876;7.372;2024-02-26T02:43:55;3.22;;;1.05;;
82159;SDS011;71734;50.876;7.372;2024-02-26T02:46:21;3.72;;;1.10;;
82159;SDS011;71734;50.876;7.372;2024-02-26T02:48:48;3.25;;;1.02;;
82159;SDS011;71734;50.876;7.372;2024-02-26T02:51:15;2.80;;;0.90;;
82159;SDS011;71734;50.876;7.372;2024-02-26T02:53:41;3.83;;;1.00;;
82159;SDS011;71734;50.876;7.372;2024-02-26T02:56:09;3.38;;;0.93;;
82159;SDS011;71734;50.876;7.372;2024-02-26T02:58:35;4.28;;;1.40;;
82159;SDS011;71734;50.876;7.372;2024-02-26T03:01:02;4.40;;;1.40;;
82159;SDS011;71734;50.876;7.372;2024-02-26T03:03:29;3.38;;;1.15;;
82159;SDS011;71734;50.876;7.372;2024-02-26T03:05:55;4.10;;;1.30;;
82159;SDS011;71734;50.876;7.372;2024-02-26T03:08:22;3.38;;;1.20;;
82159;SDS011;71734;50.876;7.372;2024-02-26T03:10:49;3.35;;;0.90;;
82159;SDS011;71734;50.876;7.372;2024-02-26T03:13:16;3.47;;;1.10;;
82159;SDS011;71734;50.876;7.372;2024-02-26T03:15:43;2.72;;;0.85;;
82159;SDS011;71734;50.876;7.372;2024-02-26T03:18:10;3.08;;;1.10;;
82159;SDS011;71734;50.876;7.372;2024-02-26T03:20:36;2.97;;;0.85;;
82159;SDS011;71734;50.876;7.372;2024-02-26T03:23:03;2.47;;;0.98;;
82159;SDS011;71734;50.876;7.372;2024-02-26T03:25:30;2.63;;;0.90;;
82159;SDS011;71734;50.876;7.372;2024-02-26T03:27:56;3.58;;;1.10;;
82159;SDS011;71734;50.876;7.372;2024-02-26T03:30:24;3.63;;;1.02;;
82159;SDS011;71734;50.876;7.372;2024-02-26T03:32:50;2.25;;;0.90;;
82159;SDS011;71734;50.876;7.372;2024-02-26T03:35:17;3.17;;;1.08;;
82159;SDS011;71734;50.876;7.372;2024-02-26T03:37:45;2.58;;;1.00;;
82159;SDS011;71734;50.876;7.372;2024-02-26T03:40:12;3.13;;;0.90;;
82159;SDS011;71734;50.876;7.372;2024-02-26T03:42:39;3.08;;;0.90;;
82159;SDS011;71734;50.876;7.372;2024-02-26T03:45:06;2.47;;;0.90;;
82159;SDS011;71734;50.876;7.372;2024-02-26T03:47:35;3.03;;;1.10;;
82159;SDS011;71734;50.876;7.372;2024-02-26T03:50:04;2.92;;;0.95;;
82159;SDS011;71734;50.876;7.372;2024-02-26T03:52:31;2.88;;;0.85;;
82159;SDS011;71734;50.876;7.372;2024-02-26T03:54:58;2.20;;;1.00;;
82159;SDS011;71734;50.876;7.372;2024-02-26T03:57:25;2.97;;;1.00;;
82159;SDS011;71734;50.876;7.372;2024-02-26T03:59:51;2.85;;;1.00;;
82159;SDS011;71734;50.876;7.372;2024-02-26T04:02:18;3.10;;;0.90;;
82159;SDS011;71734;50.876;7.372;2024-02-26T04:04:46;3.15;;;0.82;;
82159;SDS011;71734;50.876;7.372;2024-02-26T04:07:13;2.60;;;0.90;;
82159;SDS011;71734;50.876;7.372;2024-02-26T04:09:39;2.83;;;0.90;;
82159;SDS011;71734;50.876;7.372;2024-02-26T04:12:07;2.30;;;0.93;;
82159;SDS011;71734;50.876;7.372;2024-02-26T04:14:35;3.20;;;1.05;;
82159;SDS011;71734;50.876;7.372;2024-02-26T04:17:01;3.30;;;1.00;;
82159;SDS011;71734;50.876;7.372;2024-02-26T04:19:28;3.90;;;1.20;;
82159;SDS011;71734;50.876;7.372;2024-02-26T04:21:56;4.68;;;1.27;;
82159;SDS011;71734;50.876;7.372;2024-02-26T04:24:23;5.10;;;1.40;;
82159;SDS011;71734;50.876;7.372;2024-02-26T04:26:49;3.72;;;1.13;;
82159;SDS011;71734;50.876;7.372;2024-02-26T04:29:16;2.97;;;1.05;;
82159;SDS011;71734;50.876;7.372;2024-02-26T04:31:42;3.67;;;1.08;;
82159;SDS011;71734;50.876;7.372;2024-02-26T04:34:11;3.60;;;0.90;;
82159;SDS011;71734;50.876;7.372;2024-02-26T04:36:37;3.10;;;0.88;;
82159;SDS011;71734;50.876;7.372;2024-02-26T04:39:05;2.97;;;0.90;;
82159;SDS011;71734;50.876;7.372;2024-02-26T04:41:32;3.72;;;1.00;;
82159;SDS011;71734;50.876;7.372;2024-02-26T04:43:58;3.63;;;1.08;;
82159;SDS011;71734;50.876;7.372;2024-02-26T04:46:25;3.10;;;1.00;;
82159;SDS011;71734;50.876;7.372;2024-02-26T04:48:53;4.05;;;1.10;;
82159;SDS011;71734;50.876;7.372;2024-02-26T04:51:20;5.25;;;1.10;;
82159;SDS011;71734;50.876;7.372;2024-02-26T04:53:46;2.95;;;0.95;;
82159;SDS011;71734;50.876;7.372;2024-02-26T04:56:14;4.75;;;1.20;;
82159;SDS011;71734;50.876;7.372;2024-02-26T04:58:40;3.15;;;0.82;;
82159;SDS011;71734;50.876;7.372;2024-02-26T05:01:07;3.47;;;1.17;;
82159;SDS011;71734;50.876;7.372;2024-02-26T05:03:35;3.30;;;0.98;;
82159;SDS011;71734;50.876;7.372;2024-02-26T05:06:01;2.78;;;1.10;;
82159;SDS011;71734;50.876;7.372;2024-02-26T05:08:28;4.70;;;1.13;;
82159;SDS011;71734;50.876;7.372;2024-02-26T05:10:55;2.90;;;0.93;;
82159;SDS011;71734;50.876;7.372;2024-02-26T05:13:23;4.13;;;1.00;;
82159;SDS011;71734;50.876;7.372;2024-02-26T05:15:51;3.15;;;1.00;;
82159;SDS011;71734;50.876;7.372;2024-02-26T05:18:18;4.72;;;1.20;;
82159;SDS011;71734;50.876;7.372;2024-02-26T05:20:44;2.50;;;0.98;;
82159;SDS011;71734;50.876;7.372;2024-02-26T05:23:11;2.78;;;1.00;;
82159;SDS011;71734;50.876;7.372;2024-02-26T05:25:38;3.08;;;1.05;;
82159;SDS011;71734;50.876;7.372;2024-02-26T05:28:05;4.28;;;1.15;;
82159;SDS011;71734;50.876;7.372;2024-02-26T05:30:33;3.97;;;1.20;;
82159;SDS011;71734;50.876;7.372;2024-02-26T05:32:59;3.97;;;1.20;;
82159;SDS011;71734;50.876;7.372;2024-02-26T05:35:26;4.60;;;1.10;;
82159;SDS011;71734;50.876;7.372;2024-02-26T05:37:53;4.47;;;1.30;;
82159;SDS011;71734;50.876;7.372;2024-02-26T05:40:19;4.72;;;1.48;;
82159;SDS011;71734;50.876;7.372;2024-02-26T05:42:47;4.90;;;1.20;;
82159;SDS011;71734;50.876;7.372;2024-02-26T05:45:14;4.70;;;1.40;;
82159;SDS011;71734;50.876;7.372;2024-02-26T05:47:42;3.30;;;1.25;;
82159;SDS011;71734;50.876;7.372;2024-02-26T05:50:09;4.20;;;1.30;;
82159;SDS011;71734;50.876;7.372;2024-02-26T05:52:36;3.90;;;1.30;;
82159;SDS011;71734;50.876;7.372;2024-02-26T05:55:03;4.07;;;1.42;;
82159;SDS011;71734;50.876;7.372;2024-02-26T05:57:35;4.10;;;1.30;;
82159;SDS011;71734;50.876;7.372;2024-02-26T06:00:02;4.07;;;1.20;;
82159;SDS011;71734;50.876;7.372;2024-02-26T06:02:29;4.30;;;1.25;;
82159;SDS011;71734;50.876;7.372;2024-02-26T06:04:57;4.55;;;1.50;;
82159;SDS011;71734;50.876;7.372;2024-02-26T06:07:24;4.63;;;1.20;;
82159;SDS011;71734;50.876;7.372;2024-02-26T06:09:51;4.38;;;1.30;;
82159;SDS011;71734;50.876;7.372;2024-02-26T06:12:17;4.32;;;1.50;;
82159;SDS011;71734;50.876;7.372;2024-02-26T06:14:44;4.38;;;1.85;;
82159;SDS011;71734;50.876;7.372;2024-02-26T06:17:10;4.93;;;1.50;;
82159;SDS011;71734;50.876;7.372;2024-02-26T06:19:37;4.57;;;1.40;;
82159;SDS011;71734;50.876;7.372;2024-02-26T06:22:05;4.22;;;1.38;;
82159;SDS011;71734;50.876;7.372;2024-02-26T06:24:32;4.95;;;1.40;;
82159;SDS011;71734;50.876;7.372;2024-02-26T06:26:58;5.78;;;1.65;;
82159;SDS011;71734;50.876;7.372;2024-02-26T06:29:25;5.35;;;1.75;;
82159;SDS011;71734;50.876;7.372;2024-02-26T06:31:51;5.38;;;1.70;;
82159;SDS011;71734;50.876;7.372;2024-02-26T06:34:18;4.25;;;1.35;;
82159;SDS011;71734;50.876;7.372;2024-02-26T06:36:44;5.00;;;1.48;;
82159;SDS011;71734;50.876;7.372;2024-02-26T06:39:12;4.30;;;1.30;;
82159;SDS011;71734;50.876;7.372;2024-02-26T06:41:41;5.82;;;1.88;;
82159;SDS011;71734;50.876;7.372;2024-02-26T06:44:11;4.80;;;1.67;;
82159;SDS011;71734;50.876;7.372;2024-02-26T06:46:38;5.85;;;1.80;;
82159;SDS011;71734;50.876;7.372;2024-02-26T06:49:04;6.30;;;1.85;;
82159;SDS011;71734;50.876;7.372;2024-02-26T06:51:31;7.22;;;1.65;;
82159;SDS011;71734;50.876;7.372;2024-02-26T06:53:57;6.88;;;2.22;;
82159;SDS011;71734;50.876;7.372;2024-02-26T06:58:55;7.50;;;2.20;;
82159;SDS011;71734;50.876;7.372;2024-02-26T07:01:21;6.15;;;2.03;;
82159;SDS011;71734;50.876;7.372;2024-02-26T07:03:48;6.80;;;2.10;;
82159;SDS011;71734;50.876;7.372;2024-02-26T07:06:15;6.13;;;1.98;;
82159;SDS011;71734;50.876;7.372;2024-02-26T07:08:41;6.85;;;2.30;;
82159;SDS011;71734;50.876;7.372;2024-02-26T07:11:08;5.57;;;2.22;;
82159;SDS011;71734;50.876;7.372;2024-02-26T07:13:36;7.93;;;2.42;;
82159;SDS011;71734;50.876;7.372;2024-02-26T07:16:03;6.57;;;1.90;;
82159;SDS011;71734;50.876;7.372;2024-02-26T07:18:30;4.53;;;1.55;;
82159;SDS011;71734;50.876;7.372;2024-02-26T07:20:57;4.68;;;1.67;;
82159;SDS011;71734;50.876;7.372;2024-02-26T07:23:24;5.43;;;1.88;;
82159;SDS011;71734;50.876;7.372;2024-02-26T07:25:50;4.80;;;1.77;;
82159;SDS011;71734;50.876;7.372;2024-02-26T07:28:18;5.43;;;1.60;;
82159;SDS011;71734;50.876;7.372;2024-02-26T07:30:46;4.95;;;1.75;;
82159;SDS011;71734;50.876;7.372;2024-02-26T07:33:12;4.50;;;1.48;;
82159;SDS011;71734;50.876;7.372;2024-02-26T07:35:39;4.88;;;1.77;;
82159;SDS011;71734;50.876;7.372;2024-02-26T07:38:06;5.47;;;1.70;;
82159;SDS011;71734;50.876;7.372;2024-02-26T07:40:32;6.18;;;1.80;;
82159;SDS011;71734;50.876;7.372;2024-02-26T07:42:59;5.53;;;1.70;;
82159;SDS011;71734;50.876;7.372;2024-02-26T07:45:25;5.93;;;2.67;;
82159;SDS011;71734;50.876;7.372;2024-02-26T07:47:53;6.03;;;2.03;;
82159;SDS011;71734;50.876;7.372;2024-02-26T07:50:19;5.72;;;1.80;;
82159;SDS011;71734;50.876;7.372;2024-02-26T07:52:46;6.45;;;1.83;;
82159;SDS011;71734;50.876;7.372;2024-02-26T07:55:12;5.72;;;1.77;;
82159;SDS011;71734;50.876;7.372;2024-02-26T07:57:41;4.90;;;1.75;;
82159;SDS011;71734;50.876;7.372;2024-02-26T08:00:09;6.05;;;1.90;;
82159;SDS011;71734;50.876;7.372;2024-02-26T08:02:36;6.03;;;1.90;;
82159;SDS011;71734;50.876;7.372;2024-02-26T08:05:05;6.60;;;2.13;;
82159;SDS011;71734;50.876;7.372;2024-02-26T08:07:32;7.47;;;2.70;;
82159;SDS011;71734;50.876;7.372;2024-02-26T08:09:58;6.47;;;2.22;;
82159;SDS011;71734;50.876;7.372;2024-02-26T08:12:25;7.45;;;2.60;;
82159;SDS011;71734;50.876;7.372;2024-02-26T08:14:51;7.20;;;2.15;;
82159;SDS011;71734;50.876;7.372;2024-02-26T08:17:18;8.68;;;3.05;;
82159;SDS011;71734;50.876;7.372;2024-02-26T08:19:45;6.95;;;2.45;;
82159;SDS011;71734;50.876;7.372;2024-02-26T08:22:13;8.57;;;2.38;;
82159;SDS011;71734;50.876;7.372;2024-02-26T08:24:41;5.50;;;1.73;;
82159;SDS011;71734;50.876;7.372;2024-02-26T08:27:07;6.05;;;1.77;;
82159;SDS011;71734;50.876;7.372;2024-02-26T08:29:44;6.55;;;1.98;;
82159;SDS011;71734;50.876;7.372;2024-02-26T08:32:10;6.25;;;1.80;;
82159;SDS011;71734;50.876;7.372;2024-02-26T08:34:37;4.78;;;1.80;;
82159;SDS011;71734;50.876;7.372;2024-02-26T08:37:04;5.60;;;1.70;;
82159;SDS011;71734;50.876;7.372;2024-02-26T08:39:33;6.38;;;1.88;;
82159;SDS011;71734;50.876;7.372;2024-02-26T08:42:00;5.07;;;1.80;;
82159;SDS011;71734;50.876;7.372;2024-02-26T08:44:26;4.82;;;1.50;;
82159;SDS011;71734;50.876;7.372;2024-02-26T08:46:53;6.18;;;1.80;;
82159;SDS011;71734;50.876;7.372;2024-02-26T08:49:21;4.68;;;1.65;;
82159;SDS011;71734;50.876;7.372;2024-02-26T08:51:54;6.43;;;1.95;;
82159;SDS011;71734;50.876;7.372;2024-02-26T08:54:21;6.40;;;1.67;;
82159;SDS011;71734;50.876;7.372;2024-02-26T08:56:50;6.45;;;2.15;;
82159;SDS011;71734;50.876;7.372;2024-02-26T08:59:17;6.32;;;1.80;;
82159;SDS011;71734;50.876;7.372;2024-02-26T09:01:47;7.05;;;1.90;;
82159;SDS011;71734;50.876;7.372;2024-02-26T09:04:14;5.78;;;1.70;;
82159;SDS011;71734;50.876;7.372;2024-02-26T09:06:40;5.78;;;1.80;;
82159;SDS011;71734;50.876;7.372;2024-02-26T09:09:07;5.38;;;1.90;;
82159;SDS011;71734;50.876;7.372;2024-02-26T09:11:33;5.75;;;1.80;;
82159;SDS011;71734;50.876;7.372;2024-02-26T09:14:01;7.10;;;2.10;;
82159;SDS011;71734;50.876;7.372;2024-02-26T09:16:47;5.18;;;1.80;;
82159;SDS011;71734;50.876;7.372;2024-02-26T09:19:14;5.20;;;1.70;;
82159;SDS011;71734;50.876;7.372;2024-02-26T09:21:42;5.75;;;1.77;;
82159;SDS011;71734;50.876;7.372;2024-02-26T09:24:09;6.70;;;1.88;;
82159;SDS011;71734;50.876;7.372;2024-02-26T09:26:36;6.30;;;2.08;;
82159;SDS011;71734;50.876;7.372;2024-02-26T09:29:04;9.85;;;4.28;;
82159;SDS011;71734;50.876;7.372;2024-02-26T09:31:33;7.82;;;2.40;;
82159;SDS011;71734;50.876;7.372;2024-02-26T09:34:00;6.40;;;2.40;;
82159;SDS011;71734;50.876;7.372;2024-02-26T09:36:26;6.03;;;1.95;;
82159;SDS011;71734;50.876;7.372;2024-02-26T09:38:54;5.43;;;1.90;;
82159;SDS011;71734;50.876;7.372;2024-02-26T09:41:21;8.20;;;3.00;;
82159;SDS011;71734;50.876;7.372;2024-02-26T09:43:47;8.40;;;2.72;;
82159;SDS011;71734;50.876;7.372;2024-02-26T09:46:18;8.77;;;2.97;;
82159;SDS011;71734;50.876;7.372;2024-02-26T09:48:45;9.10;;;3.03;;
82159;SDS011;71734;50.876;7.372;2024-02-26T09:53:59;5.43;;;2.20;;
82159;SDS011;71734;50.876;7.372;2024-02-26T09:56:26;5.88;;;2.10;;
82159;SDS011;71734;50.876;7.372;2024-02-26T09:58:54;7.43;;;2.80;;
82159;SDS011;71734;50.876;7.372;2024-02-26T10:01:24;8.35;;;2.60;;
82159;SDS011;71734;50.876;7.372;2024-02-26T10:03:53;7.93;;;2.60;;
82159;SDS011;71734;50.876;7.372;2024-02-26T10:06:23;7.95;;;2.70;;
82159;SDS011;71734;50.876;7.372;2024-02-26T10:08:50;7.13;;;2.55;;
82159;SDS011;71734;50.876;7.372;2024-02-26T10:11:17;8.02;;;2.80;;
82159;SDS011;71734;50.876;7.372;2024-02-26T10:13:54;7.80;;;2.55;;
82159;SDS011;71734;50.876;7.372;2024-02-26T10:16:24;7.05;;;2.60;;
82159;SDS011;71734;50.876;7.372;2024-02-26T10:18:51;8.38;;;2.88;;
82159;SDS011;71734;50.876;7.372;2024-02-26T10:21:20;7.03;;;2.63;;
82159;SDS011;71734;50.876;7.372;2024-02-26T10:23:48;6.25;;;2.35;;
82159;SDS011;71734;50.876;7.372;2024-02-26T10:26:15;6.95;;;2.53;;
82159;SDS011;71734;50.876;7.372;2024-02-26T10:28:42;7.55;;;3.15;;
82159;SDS011;71734;50.876;7.372;2024-02-26T10:31:09;6.22;;;2.63;;
82159;SDS011;71734;50.876;7.372;2024-02-26T10:33:39;6.60;;;2.47;;
82159;SDS011;71734;50.876;7.372;2024-02-26T10:36:06;8.07;;;3.00;;
82159;SDS011;71734;50.876;7.372;2024-02-26T10:38:34;5.90;;;2.42;;
82159;SDS011;71734;50.876;7.372;2024-02-26T10:41:01;8.30;;;3.10;;
82159;SDS011;71734;50.876;7.372;2024-02-26T10:43:28;8.98;;;3.38;;
82159;SDS011;71734;50.876;7.372;2024-02-26T10:45:55;7.60;;;2.63;;
82159;SDS011;71734;50.876;7.372;2024-02-26T10:48:22;7.20;;;2.80;;
82159;SDS011;71734;50.876;7.372;2024-02-26T10:50:50;7.70;;;2.70;;
82159;SDS011;71734;50.876;7.372;2024-02-26T10:53:19;5.63;;;2.33;;
82159;SDS011;71734;50.876;7.372;2024-02-26T10:55:48;6.88;;;2.53;;
82159;SDS011;71734;50.876;7.372;2024-02-26T10:58:16;7.63;;;2.63;;
82159;SDS011;71734;50.876;7.372;2024-02-26T11:00:43;6.68;;;2.33;;
82159;SDS011;71734;50.876;7.372;2024-02-26T11:03:12;6.78;;;2.50;;
82159;SDS011;71734;50.876;7.372;2024-02-26T11:05:41;7.20;;;2.50;;
82159;SDS011;71734;50.876;7.372;2024-02-26T11:08:10;8.30;;;2.97;;
82159;SDS011;71734;50.876;7.372;2024-02-26T11:10:37;6.78;;;2.35;;
82159;SDS011;71734;50.876;7.372;2024-02-26T11:13:06;9.93;;;4.07;;
82159;SDS011;71734;50.876;7.372;2024-02-26T11:15:36;8.23;;;2.90;;
82159;SDS011;71734;50.876;7.372;2024-02-26T11:18:03;6.13;;;2.20;;
82159;SDS011;71734;50.876;7.372;2024-02-26T11:20:30;6.72;;;2.50;;
82159;SDS011;71734;50.876;7.372;2024-02-26T11:22:59;8.30;;;3.08;;
82159;SDS011;71734;50.876;7.372;2024-02-26T11:25:27;6.93;;;2.53;;
82159;SDS011;71734;50.876;7.372;2024-02-26T11:27:55;6.70;;;2.47;;
82159;SDS011;71734;50.876;7.372;2024-02-26T11:30:24;6.10;;;2.13;;
82159;SDS011;71734;50.876;7.372;2024-02-26T11:32:52;6.15;;;2.10;;
82159;SDS011;71734;50.876;7.372;2024-02-26T11:35:19;7.38;;;2.30;;
82159;SDS011;71734;50.876;7.372;2024-02-26T11:37:53;6.22;;;2.35;;
82159;SDS011;71734;50.876;7.372;2024-02-26T11:40:21;7.13;;;2.22;;
82159;SDS011;71734;50.876;7.372;2024-02-26T11:42:49;6.95;;;2.22;;
82159;SDS011;71734;50.876;7.372;2024-02-26T11:48:19;10.98;;;4.18;;
82159;SDS011;71734;50.876;7.372;2024-02-26T11:50:47;6.40;;;2.50;;
82159;SDS011;71734;50.876;7.372;2024-02-26T11:53:24;7.25;;;2.92;;
82159;SDS011;71734;50.876;7.372;2024-02-26T11:58:49;6.85;;;2.92;;
82159;SDS011;71734;50.876;7.372;2024-02-26T12:04:13;11.82;;;4.68;;
82159;SDS011;71734;50.876;7.372;2024-02-26T12:06:43;17.60;;;7.50;;
82159;SDS011;71734;50.876;7.372;2024-02-26T12:09:12;13.35;;;6.15;;
82159;SDS011;71734;50.876;7.372;2024-02-26T12:11:39;11.32;;;4.55;;
82159;SDS011;71734;50.876;7.372;2024-02-26T12:20:07;9.55;;;3.60;;
82159;SDS011;71734;50.876;7.372;2024-02-26T12:22:42;26.98;;;9.80;;
82159;SDS011;71734;50.876;7.372;2024-02-26T12:25:12;26.95;;;9.45;;
82159;SDS011;71734;50.876;7.372;2024-02-26T12:27:41;46.28;;;15.80;;
82159;SDS011;71734;50.876;7.372;2024-02-26T12:30:15;20.90;;;8.43;;
82159;SDS011;71734;50.876;7.372;2024-02-26T12:32:43;19.77;;;6.97;;
82159;SDS011;71734;50.876;7.372;2024-02-26T12:35:09;33.08;;;12.70;;
82159;SDS011;71734;50.876;7.372;2024-02-26T12:37:36;17.77;;;6.70;;
82159;SDS011;71734;50.876;7.372;2024-02-26T12:42:49;22.27;;;8.75;;
82159;SDS011;71734;50.876;7.372;2024-02-26T12:45:20;16.55;;;7.60;;
82159;SDS011;71734;50.876;7.372;2024-02-26T12:47:49;18.92;;;7.63;;
82159;SDS011;71734;50.876;7.372;2024-02-26T12:50:15;12.80;;;5.63;;
82159;SDS011;71734;50.876;7.372;2024-02-26T12:52:45;18.42;;;8.43;;
82159;SDS011;71734;50.876;7.372;2024-02-26T12:55:14;19.17;;;8.20;;
82159;SDS011;71734;50.876;7.372;2024-02-26T12:57:43;11.70;;;4.78;;
82159;SDS011;71734;50.876;7.372;2024-02-26T13:00:12;10.90;;;4.47;;
82159;SDS011;71734;50.876;7.372;2024-02-26T13:02:43;12.27;;;5.00;;
82159;SDS011;71734;50.876;7.372;2024-02-26T13:05:11;15.98;;;7.00;;
82159;SDS011;71734;50.876;7.372;2024-02-26T13:07:40;14.07;;;5.68;;
82159;SDS011;71734;50.876;7.372;2024-02-26T13:10:08;9.77;;;4.10;;
82159;SDS011;71734;50.876;7.372;2024-02-26T13:12:36;13.35;;;5.03;;
82159;SDS011;71734;50.876;7.372;2024-02-26T13:15:03;15.07;;;6.03;;
82159;SDS011;71734;50.876;7.372;2024-02-26T13:17:31;14.52;;;5.80;;
82159;SDS011;71734;50.876;7.372;2024-02-26T13:19:59;9.30;;;3.85;;
82159;SDS011;71734;50.876;7.372;2024-02-26T13:22:25;9.75;;;3.92;;
82159;SDS011;71734;50.876;7.372;2024-02-26T13:24:55;9.48;;;3.88;;
82159;SDS011;71734;50.876;7.372;2024-02-26T13:27:25;12.55;;;5.40;;
82159;SDS011;71734;50.876;7.372;2024-02-26T13:30:02;12.52;;;5.10;;
82159;SDS011;71734;50.876;7.372;2024-02-26T13:32:35;9.50;;;4.20;;
82159;SDS011;71734;50.876;7.372;2024-02-26T13:35:07;16.88;;;6.20;;
82159;SDS011;71734;50.876;7.372;2024-02-26T13:37:35;14.65;;;5.63;;
82159;SDS011;71734;50.876;7.372;2024-02-26T13:40:04;14.45;;;5.32;;
82159;SDS011;71734;50.876;7.372;2024-02-26T13:42:34;13.23;;;4.93;;
82159;SDS011;71734;50.876;7.372;2024-02-26T13:45:00;13.15;;;4.88;;
82159;SDS011;71734;50.876;7.372;2024-02-26T13:47:27;14.65;;;5.97;;
82159;SDS011;71734;50.876;7.372;2024-02-26T13:49:54;9.18;;;3.70;;
82159;SDS011;71734;50.876;7.372;2024-02-26T13:52:22;11.02;;;4.32;;
82159;SDS011;71734;50.876;7.372;2024-02-26T13:54:52;9.80;;;4.30;;
82159;SDS011;71734;50.876;7.372;2024-02-26T13:57:18;8.68;;;3.63;;
82159;SDS011;71734;50.876;7.372;2024-02-26T13:59:45;8.70;;;3.33;;
82159;SDS011;71734;50.876;7.372;2024-02-26T14:02:12;7.82;;;3.30;;
82159;SDS011;71734;50.876;7.372;2024-02-26T14:04:39;8.13;;;3.65;;
82159;SDS011;71734;50.876;7.372;2024-02-26T14:07:06;8.48;;;3.20;;
82159;SDS011;71734;50.876;7.372;2024-02-26T14:09:34;7.22;;;2.80;;
82159;SDS011;71734;50.876;7.372;2024-02-26T14:12:01;8.18;;;3.25;;
82159;SDS011;71734;50.876;7.372;2024-02-26T14:14:30;6.55;;;2.80;;
82159;SDS011;71734;50.876;7.372;2024-02-26T14:17:03;8.38;;;3.30;;
82159;SDS011;71734;50.876;7.372;2024-02-26T14:19:30;7.78;;;3.10;;
82159;SDS011;71734;50.876;7.372;2024-02-26T14:21:59;7.75;;;3.17;;
82159;SDS011;71734;50.876;7.372;2024-02-26T14:24:25;7.38;;;3.15;;
82159;SDS011;71734;50.876;7.372;2024-02-26T14:26:53;8.82;;;3.90;;
82159;SDS011;71734;50.876;7.372;2024-02-26T14:29:20;9.52;;;3.95;;
82159;SDS011;71734;50.876;7.372;2024-02-26T14:37:58;8.82;;;3.40;;
82159;SDS011;71734;50.876;7.372;2024-02-26T14:40:26;9.82;;;3.50;;
82159;SDS011;71734;50.876;7.372;2024-02-26T14:42:54;8.35;;;3.20;;
82159;SDS011;71734;50.876;7.372;2024-02-26T14:45:22;8.48;;;3.50;;
82159;SDS011;71734;50.876;7.372;2024-02-26T14:47:51;9.05;;;3.55;;
82159;SDS011;71734;50.876;7.372;2024-02-26T14:50:18;8.25;;;3.42;;
82159;SDS011;71734;50.876;7.372;2024-02-26T14:52:44;7.95;;;3.10;;
82159;SDS011;71734;50.876;7.372;2024-02-26T14:55:11;8.35;;;3.13;;
82159;SDS011;71734;50.876;7.372;2024-02-26T14:57:37;7.93;;;2.92;;
82159;SDS011;71734;50.876;7.372;2024-02-26T15:00:06;11.13;;;3.65;;
82159;SDS011;71734;50.876;7.372;2024-02-26T15:02:35;9.73;;;3.83;;
82159;SDS011;71734;50.876;7.372;2024-02-26T15:05:02;8.65;;;3.58;;
82159;SDS011;71734;50.876;7.372;2024-02-26T15:07:37;8.68;;;3.60;;
82159;SDS011;71734;50.876;7.372;2024-02-26T15:10:05;8.57;;;3.00;;
82159;SDS011;71734;50.876;7.372;2024-02-26T15:12:33;7.75;;;2.95;;
82159;SDS011;71734;50.876;7.372;2024-02-26T15:15:02;7.65;;;3.42;;
82159;SDS011;71734;50.876;7.372;2024-02-26T15:17:30;9.60;;;3.55;;
82159;SDS011;71734;50.876;7.372;2024-02-26T15:20:00;8.10;;;3.40;;